Time;durP1;ratioP1;P1;durP2;ratioP2;P2;SDS_P1;SDS_P2;PMS_P1;PMS_P2;Temp;Humidity;BMP_temperature;BMP_pressure;BME280_temperature;BME280_humidity;BME280_pressure;Samples;Min_cycle;Max_cycle;Signal;HPM_P1;HPM_P2
2022/03/24 00:05:12;;;;;;;8.43;4.10;;;9.70;67.80;;;;;;20678018;28;20411;-72
2022/03/24 00:15:14;;;;;;;3.85;2.45;;;9.80;67.60;;;;;;20678181;28;20097;-70
2022/03/24 00:25:16;;;;;;;5.18;2.22;;;9.70;67.50;;;;;;20676857;28;20486;-69
2022/03/24 00:35:18;;;;;;;6.35;2.60;;;9.70;67.70;;;;;;20680214;28;20061;-71
2022/03/24 00:45:20;;;;;;;3.95;2.10;;;9.60;68.00;;;;;;20678615;28;20050;-72
2022/03/24 00:55:22;;;;;;;5.32;2.03;;;9.50;68.30;;;;;;20674950;28;20157;-71
2022/03/24 01:05:24;;;;;;;5.90;2.38;;;;;;;;;;20673796;28;20054;-66
2022/03/24 01:15:27;;;;;;;4.65;2.28;;;9.30;69.10;;;;;;20673574;28;20197;-65
2022/03/24 01:25:30;;;;;;;4.90;2.38;;;9.20;69.50;;;;;;20672818;28;20454;-67
2022/03/24 01:35:32;;;;;;;5.82;2.20;;;9.20;69.90;;;;;;20672073;28;20085;-67
2022/03/24 01:45:34;;;;;;;3.83;1.88;;;9.20;70.20;;;;;;20680893;28;20506;-70
2022/03/24 01:55:39;;;;;;;3.35;1.85;;;9.20;70.40;;;;;;20671186;28;20054;-68
2022/03/24 02:05:41;;;;;;;3.75;1.80;;;9.20;70.40;;;;;;20670953;28;20058;-69
2022/03/24 02:15:43;;;;;;;3.33;1.70;;;9.20;70.50;;;;;;20685126;28;20109;-71
2022/03/24 02:25:46;;;;;;;2.90;1.80;;;9.00;70.70;;;;;;20668280;28;20058;-69
2022/03/24 02:35:52;;;;;;;3.03;1.67;;;9.00;70.90;;;;;;20668015;28;20061;-70
2022/03/24 02:45:57;;;;;;;3.60;1.63;;;9.10;70.70;;;;;;20667231;28;20058;-71
2022/03/24 02:56:00;;;;;;;4.70;2.17;;;9.10;70.60;;;;;;20666908;28;20051;-68
2022/03/24 03:06:07;;;;;;;2.42;1.40;;;9.10;70.60;;;;;;20682039;28;20089;-71
2022/03/24 03:16:12;;;;;;;3.85;1.70;;;9.20;70.40;;;;;;20681840;28;20046;-69
2022/03/24 03:26:17;;;;;;;2.90;1.80;;;9.10;69.90;;;;;;20680814;28;20054;-71
2022/03/24 03:36:22;;;;;;;2.38;1.55;;;9.20;69.60;;;;;;20680700;28;20050;-69
2022/03/24 03:46:25;;;;;;;3.30;1.90;;;9.20;69.40;;;;;;20680757;28;20054;-71
2022/03/24 03:56:28;;;;;;;3.53;1.40;;;9.10;69.30;;;;;;20681674;28;20054;-68
2022/03/24 04:06:30;;;;;;;3.88;1.50;;;9.10;69.30;;;;;;20677179;28;20133;-70
2022/03/24 04:16:33;;;;;;;3.30;1.88;;;9.10;69.30;;;;;;20675615;28;20132;-70
2022/03/24 04:26:35;;;;;;;3.17;1.88;;;9.10;69.20;;;;;;20676636;28;20118;-66
2022/03/24 04:36:37;;;;;;;2.42;1.77;;;9.20;69.00;;;;;;20678963;28;20057;-65
2022/03/24 04:46:41;;;;;;;5.45;1.83;;;9.10;69.10;;;;;;20676139;28;20050;-65
2022/03/24 04:56:44;;;;;;;4.30;1.70;;;9.10;69.00;;;;;;20675080;28;20450;-66
2022/03/24 05:06:46;;;;;;;2.55;1.60;;;9.10;69.20;;;;;;20674341;28;20046;-65
2022/03/24 05:16:48;;;;;;;3.20;2.00;;;9.20;69.10;;;;;;20673928;28;20058;-64
2022/03/24 05:26:50;;;;;;;4.78;1.60;;;9.10;69.20;;;;;;20673393;28;20054;-66
2022/03/24 05:36:53;;;;;;;2.90;1.60;;;9.20;69.10;;;;;;20672582;28;20050;-66
2022/03/24 05:46:55;;;;;;;3.33;1.55;;;9.20;69.10;;;;;;20672277;28;20057;-65
2022/03/24 05:56:57;;;;;;;3.72;1.50;;;9.30;69.00;;;;;;20671045;28;20054;-66
2022/03/24 06:07:01;;;;;;;5.07;1.70;;;9.30;68.90;;;;;;20671641;28;20057;-66
2022/03/24 06:17:05;;;;;;;3.55;1.98;;;9.30;68.90;;;;;;20685134;28;20058;-64
2022/03/24 06:27:06;;;;;;;1.50;1.10;;;9.30;68.90;;;;;;20669741;28;20043;-63
2022/03/24 06:37:11;;;;;;;3.53;1.48;;;9.40;68.90;;;;;;20667881;28;20086;-65
2022/03/24 06:47:12;;;;;;;2.70;1.60;;;9.40;68.80;;;;;;20667521;28;20058;-64
2022/03/24 06:57:14;;;;;;;3.20;1.70;;;9.50;68.90;;;;;;20666832;28;20414;-65
2022/03/24 07:07:16;;;;;;;4.60;1.77;;;9.50;68.70;;;;;;20666095;28;20059;-66
2022/03/24 07:17:19;;;;;;;3.67;1.42;;;9.40;69.40;;;;;;20665071;28;20135;-65
2022/03/24 07:27:21;;;;;;;3.05;1.30;;;9.40;70.10;;;;;;20665197;28;20078;-65
2022/03/24 07:37:23;;;;;;;3.17;2.00;;;9.40;70.80;;;;;;20665423;28;20482;-68
2022/03/24 07:47:27;;;;;;;3.00;1.70;;;9.50;70.70;;;;;;20672631;28;20123;-67
2022/03/24 07:57:32;;;;;;;5.32;1.77;;;9.50;70.70;;;;;;20680568;28;20087;-64
2022/03/24 08:07:35;;;;;;;6.30;2.25;;;9.50;70.70;;;;;;20678408;28;20046;-64
2022/03/24 08:17:36;;;;;;;6.25;1.77;;;9.70;70.50;;;;;;20679206;28;20116;-65
2022/03/24 08:27:37;;;;;;;6.82;1.88;;;9.60;70.50;;;;;;20690774;28;20051;-68
2022/03/24 08:37:39;;;;;;;3.38;2.08;;;9.60;70.80;;;;;;20676485;28;20081;-69
2022/03/24 08:47:41;;;;;;;3.15;1.50;;;9.60;71.10;;;;;;20674187;28;20050;-67
2022/03/24 08:57:44;;;;;;;3.80;1.85;;;9.70;71.30;;;;;;20673275;28;20047;-65
2022/03/24 09:07:46;;;;;;;4.05;2.13;;;9.70;72.20;;;;;;20671763;28;20046;-64
2022/03/24 09:17:48;;;;;;;4.47;2.17;;;9.70;73.00;;;;;;20673493;28;20054;-64
2022/03/24 09:27:51;;;;;;;4.53;2.25;;;9.70;73.80;;;;;;20672158;28;20062;-65
2022/03/24 09:37:52;;;;;;;3.70;2.15;;;9.60;74.70;;;;;;20670894;28;20083;-62
2022/03/24 09:47:56;;;;;;;4.32;2.25;;;9.70;74.90;;;;;;20670081;28;20057;-62
2022/03/24 09:57:59;;;;;;;4.63;1.85;;;9.70;75.60;;;;;;20669637;28;20050;-60
2022/03/24 10:08:05;;;;;;;5.28;1.83;;;9.70;75.90;;;;;;20668557;28;20062;-62
2022/03/24 10:18:15;;;;;;;2.80;1.67;;;9.80;76.10;;;;;;20668873;28;20054;-60
2022/03/24 10:28:18;;;;;;;3.88;1.98;;;10.00;76.10;;;;;;20667634;28;20050;-58
2022/03/24 10:38:31;;;;;;;3.00;1.70;;;10.30;76.20;;;;;;20666260;28;20054;-59
2022/03/24 10:48:33;;;;;;;3.55;1.30;;;10.80;75.30;;;;;;20667716;28;20073;-57
2022/03/24 10:58:39;;;;;;;2.45;1.25;;;10.80;75.00;;;;;;20666533;28;20141;-58
2022/03/24 11:08:43;;;;;;;2.95;1.42;;;10.90;74.40;;;;;;20636219;28;20101;-65
2022/03/24 11:18:44;;;;;;;3.03;1.70;;;11.30;73.80;;;;;;20635967;28;20043;-57
2022/03/24 11:28:46;;;;;;;4.60;1.50;;;12.50;70.40;;;;;;20672996;28;20054;-57
2022/03/24 11:38:53;;;;;;;3.25;1.40;;;12.10;71.20;;;;;;20680461;28;20054;-57
2022/03/24 11:49:16;;;;;;;3.38;1.70;;;11.90;71.90;;;;;;20677943;28;20046;-57
2022/03/24 11:59:18;;;;;;;4.97;1.88;;;12.00;72.30;;;;;;20632544;28;20053;-60
2022/03/24 12:09:22;;;;;;;2.20;1.48;;;12.90;69.70;;;;;;20666450;28;20096;-57
2022/03/24 12:19:35;;;;;;;1.98;1.58;;;13.50;68.20;;;;;;20676293;28;20050;-58
2022/03/24 12:29:37;;;;;;;4.00;1.58;;;12.90;69.90;;;;;;20675687;28;20058;-58
2022/03/24 12:39:39;;;;;;;4.88;1.77;;;12.70;70.80;;;;;;20675073;28;20105;-62
2022/03/24 12:49:40;;;;;;;3.08;1.80;;;12.70;70.90;;;;;;20676384;28;20111;-60
2022/03/24 12:59:43;;;;;;;2.53;1.42;;;12.60;71.30;;;;;;20674573;28;20065;-58
2022/03/24 13:10:14;;;;;;;3.08;1.50;;;12.70;71.40;;;;;;20673050;28;20050;-59
2022/03/24 13:20:16;;;;;;;3.45;1.50;;;12.70;72.60;;;;;;20672704;28;20069;-60
2022/03/24 13:30:25;;;;;;;4.53;1.83;;;12.60;73.20;;;;;;20671650;28;20054;-62
2022/03/24 13:40:30;;;;;;;3.27;1.73;;;12.60;73.80;;;;;;20670792;28;20046;-61
2022/03/24 13:50:32;;;;;;;3.40;1.70;;;12.70;73.80;;;;;;20670768;28;20422;-57
2022/03/24 14:00:40;;;;;;;4.95;2.08;;;12.80;73.90;;;;;;20683790;28;20487;-60
2022/03/24 14:10:43;;;;;;;3.80;1.70;;;12.80;74.10;;;;;;20669573;28;20411;-56
2022/03/24 14:20:51;;;;;;;6.13;2.28;;;12.80;74.70;;;;;;20670286;28;20072;-58
2022/03/24 14:30:52;;;;;;;4.40;1.90;;;12.80;75.10;;;;;;20667140;28;20105;-58
2022/03/24 14:40:55;;;;;;;4.13;2.40;;;12.70;75.80;;;;;;20666423;28;20073;-58
2022/03/24 14:50:59;;;;;;;4.82;2.20;;;12.70;76.20;;;;;;20666371;28;20057;-58
2022/03/24 15:01:01;;;;;;;4.28;2.15;;;12.70;76.90;;;;;;20665475;28;20065;-58
2022/03/24 15:11:03;;;;;;;4.43;2.10;;;12.70;77.40;;;;;;20666351;28;20050;-59
2022/03/24 15:21:05;;;;;;;6.30;1.95;;;12.70;77.60;;;;;;20665635;28;20050;-59
2022/03/24 15:31:06;;;;;;;3.80;1.80;;;12.70;77.80;;;;;;20665493;28;20124;-58
2022/03/24 15:41:06;;;;;;;5.55;2.20;;;12.70;77.70;;;;;;20664795;28;20050;-58
2022/03/24 15:51:08;;;;;;;4.63;1.95;;;12.70;78.00;;;;;;20664643;28;20046;-58
2022/03/24 16:01:10;;;;;;;8.30;2.22;;;12.70;77.90;;;;;;20663854;28;20054;-60
2022/03/24 16:11:10;;;;;;;3.67;2.33;;;12.80;77.80;;;;;;20677098;28;20053;-75
2022/03/24 16:21:12;;;;;;;5.30;2.80;;;12.90;77.80;;;;;;20679472;28;20045;-64
2022/03/24 16:31:14;;;;;;;4.40;2.38;;;13.00;77.60;;;;;;20676114;28;20050;-63
2022/03/24 16:41:15;;;;;;;4.55;2.15;;;13.30;76.80;;;;;;20675414;28;20070;-63
2022/03/24 16:51:17;;;;;;;7.25;2.47;;;13.40;76.80;;;;;;20675810;28;20042;-62
2022/03/24 17:01:19;;;;;;;6.43;2.63;;;13.80;76.10;;;;;;20675775;28;20455;-58
2022/03/24 17:11:21;;;;;;;6.63;2.65;;;14.20;75.10;;;;;;20673102;28;20050;-58
2022/03/24 17:21:22;;;;;;;8.95;4.68;;;14.30;75.10;;;;;;20672167;28;20054;-57
2022/03/24 17:31:24;;;;;;;8.45;5.07;;;13.80;76.50;;;;;;20673083;28;20382;-57
2022/03/24 17:41:26;;;;;;;10.63;4.65;;;13.60;77.70;;;;;;20671543;28;20128;-58
2022/03/24 17:51:27;;;;;;;7.05;3.35;;;13.40;78.70;;;;;;20671516;28;20129;-58
2022/03/24 18:01:29;;;;;;;5.82;3.10;;;13.30;79.20;;;;;;20672843;28;20177;-60
2022/03/24 18:11:31;;;;;;;7.00;2.55;;;13.30;79.30;;;;;;20669707;28;20046;-57
2022/03/24 18:21:34;;;;;;;8.35;2.33;;;13.30;78.50;;;;;;20668473;28;20054;-57
2022/03/24 18:31:35;;;;;;;13.05;3.25;;;13.10;78.10;;;;;;20668918;28;20046;-56
2022/03/24 18:41:37;;;;;;;11.32;2.70;;;13.00;78.00;;;;;;20665611;28;20054;-58
2022/03/24 18:51:38;;;;;;;14.65;2.22;;;12.90;78.60;;;;;;20666047;28;20057;-59
2022/03/24 19:01:40;;;;;;;5.70;1.75;;;13.00;77.80;;;;;;20665272;28;20054;-58
2022/03/24 19:11:41;;;;;;;6.20;2.10;;;12.80;78.50;;;;;;20666451;28;20050;-60
2022/03/24 19:21:43;;;;;;;8.65;1.83;;;13.50;77.80;;;;;;20662906;28;20415;-65
2022/03/24 19:31:44;;;;;;;5.47;1.42;;;13.40;77.00;;;;;;20665299;28;20046;-63
2022/03/24 19:41:47;;;;;;;5.28;2.20;;;12.90;78.20;;;;;;20667930;28;20499;-59
2022/03/24 19:51:49;;;;;;;9.70;3.35;;;12.60;78.70;;;;;;20679585;28;20073;-58
2022/03/24 20:01:51;;;;;;;9.88;3.65;;;12.60;79.40;;;;;;20694150;28;20051;-61
2022/03/24 20:11:55;;;;;;;13.35;5.35;;;12.80;79.30;;;;;;20679300;28;20057;-59
2022/03/24 20:21:57;;;;;;;11.13;4.45;;;12.60;80.00;;;;;;20677874;28;20108;-61
2022/03/24 20:31:59;;;;;;;14.07;5.55;;;12.50;80.60;;;;;;20677472;28;20046;-61
2022/03/24 20:42:01;;;;;;;24.40;9.90;;;12.50;81.10;;;;;;20676616;28;20085;-62
2022/03/24 20:52:03;;;;;;;11.20;3.90;;;12.40;81.60;;;;;;20674508;28;20042;-59
2022/03/24 21:02:06;;;;;;;11.23;3.63;;;12.40;81.70;;;;;;20674203;28;20050;-58
2022/03/24 21:12:10;;;;;;;9.50;3.90;;;12.30;81.50;;;;;;20674719;28;20549;-58
2022/03/24 21:22:12;;;;;;;14.90;5.38;;;12.30;81.10;;;;;;20673605;28;20498;-62
2022/03/24 21:32:14;;;;;;;10.32;4.60;;;12.30;80.80;;;;;;20673585;28;20462;-58
2022/03/24 21:42:15;;;;;;;15.23;4.78;;;12.30;80.50;;;;;;20674810;28;20136;-60
2022/03/24 21:52:18;;;;;;;9.57;3.42;;;12.30;80.40;;;;;;20672286;28;20052;-62
2022/03/24 22:02:24;;;;;;;11.77;3.05;;;12.20;80.50;;;;;;20672543;28;20108;-62
2022/03/24 22:12:26;;;;;;;14.00;2.95;;;12.20;80.50;;;;;;20670333;28;20443;-59
2022/03/24 22:22:28;;;;;;;10.27;2.80;;;12.10;80.80;;;;;;20669305;28;20154;-59
2022/03/24 22:32:30;;;;;;;7.70;2.30;;;11.90;81.00;;;;;;20668201;28;20137;-61
2022/03/24 22:42:35;;;;;;;8.57;3.00;;;11.90;81.30;;;;;;20666931;28;20093;-63
2022/03/24 22:52:37;;;;;;;15.32;2.55;;;11.80;81.40;;;;;;20667593;28;20483;-58
2022/03/24 23:02:39;;;;;;;11.80;2.45;;;11.70;81.30;;;;;;20667834;28;20050;-58
2022/03/24 23:12:40;;;;;;;6.32;2.15;;;11.60;81.40;;;;;;20667956;28;20128;-60
2022/03/24 23:22:43;;;;;;;6.50;1.67;;;11.60;81.50;;;;;;20681092;28;20113;-59
2022/03/24 23:32:45;;;;;;;6.97;1.55;;;11.60;81.40;;;;;;20680842;28;20077;-62
2022/03/24 23:42:46;;;;;;;4.30;1.50;;;11.40;81.50;;;;;;20682325;28;20609;-59
2022/03/24 23:52:48;;;;;;;2.08;1.15;;;11.30;81.80;;;;;;20696076;28;20057;-62
